sensor_id;sensor_type;location;lat;lon;timestamp;temperature;humidity
15906;DHT22;8051;50.820;4.884;2024-01-07T00:00:40;3.00;99.90
15906;DHT22;8051;50.820;4.884;2024-01-07T00:03:07;3.00;99.90
15906;DHT22;8051;50.820;4.884;2024-01-07T00:05:37;2.90;99.90
15906;DHT22;8051;50.820;4.884;2024-01-07T00:08:05;2.80;99.90
15906;DHT22;8051;50.820;4.884;2024-01-07T00:10:33;2.80;99.90
15906;DHT22;8051;50.820;4.884;2024-01-07T00:13:00;2.80;99.90
15906;DHT22;8051;50.820;4.884;2024-01-07T00:15:28;2.80;99.90
15906;DHT22;8051;50.820;4.884;2024-01-07T00:17:55;2.70;99.90
15906;DHT22;8051;50.820;4.884;2024-01-07T00:20:23;2.70;99.90
15906;DHT22;8051;50.820;4.884;2024-01-07T00:22:52;2.70;99.90
15906;DHT22;8051;50.820;4.884;2024-01-07T00:25:19;2.70;99.90
15906;DHT22;8051;50.820;4.884;2024-01-07T00:27:47;2.60;99.90
15906;DHT22;8051;50.820;4.884;2024-01-07T00:30:17;2.60;99.90
15906;DHT22;8051;50.820;4.884;2024-01-07T00:32:45;2.60;99.90
15906;DHT22;8051;50.820;4.884;2024-01-07T00:35:12;2.60;99.90
15906;DHT22;8051;50.820;4.884;2024-01-07T00:37:40;2.50;99.90
15906;DHT22;8051;50.820;4.884;2024-01-07T00:40:10;2.50;99.90
15906;DHT22;8051;50.820;4.884;2024-01-07T00:42:37;2.50;99.90
15906;DHT22;8051;50.820;4.884;2024-01-07T00:45:06;2.50;99.90
15906;DHT22;8051;50.820;4.884;2024-01-07T00:47:34;2.40;99.90
15906;DHT22;8051;50.820;4.884;2024-01-07T00:50:02;2.40;99.90
15906;DHT22;8051;50.820;4.884;2024-01-07T00:52:29;2.40;99.90
15906;DHT22;8051;50.820;4.884;2024-01-07T00:54:57;2.50;99.90
15906;DHT22;8051;50.820;4.884;2024-01-07T00:57:26;2.50;99.90
15906;DHT22;8051;50.820;4.884;2024-01-07T00:59:53;2.40;99.90
15906;DHT22;8051;50.820;4.884;2024-01-07T01:02:21;2.50;99.90
15906;DHT22;8051;50.820;4.884;2024-01-07T01:04:48;2.40;99.90
15906;DHT22;8051;50.820;4.884;2024-01-07T01:07:16;2.40;99.90
15906;DHT22;8051;50.820;4.884;2024-01-07T01:09:43;2.30;99.90
15906;DHT22;8051;50.820;4.884;2024-01-07T01:12:11;2.30;99.90
15906;DHT22;8051;50.820;4.884;2024-01-07T01:14:40;2.30;99.90
15906;DHT22;8051;50.820;4.884;2024-01-07T01:17:08;2.30;99.90
15906;DHT22;8051;50.820;4.884;2024-01-07T01:19:35;2.30;99.90
15906;DHT22;8051;50.820;4.884;2024-01-07T01:22:03;2.30;99.90
15906;DHT22;8051;50.820;4.884;2024-01-07T01:24:30;2.30;99.90
15906;DHT22;8051;50.820;4.884;2024-01-07T01:26:57;2.40;99.90
15906;DHT22;8051;50.820;4.884;2024-01-07T01:29:24;2.40;99.90
15906;DHT22;8051;50.820;4.884;2024-01-07T01:31:53;2.30;99.90
15906;DHT22;8051;50.820;4.884;2024-01-07T01:34:21;2.30;99.90
15906;DHT22;8051;50.820;4.884;2024-01-07T01:36:49;2.30;99.90
15906;DHT22;8051;50.820;4.884;2024-01-07T01:39:17;2.30;99.90
15906;DHT22;8051;50.820;4.884;2024-01-07T01:41:44;2.30;99.90
15906;DHT22;8051;50.820;4.884;2024-01-07T01:44:12;2.30;99.90
15906;DHT22;8051;50.820;4.884;2024-01-07T01:46:39;2.30;99.90
15906;DHT22;8051;50.820;4.884;2024-01-07T01:49:08;2.30;99.90
15906;DHT22;8051;50.820;4.884;2024-01-07T01:51:36;2.30;99.90
15906;DHT22;8051;50.820;4.884;2024-01-07T01:54:04;2.20;99.90
15906;DHT22;8051;50.820;4.884;2024-01-07T01:56:33;2.20;99.90
15906;DHT22;8051;50.820;4.884;2024-01-07T01:59:00;2.20;99.90
15906;DHT22;8051;50.820;4.884;2024-01-07T02:01:28;2.20;99.90
15906;DHT22;8051;50.820;4.884;2024-01-07T02:03:57;2.20;99.90
15906;DHT22;8051;50.820;4.884;2024-01-07T02:06:26;2.20;99.90
15906;DHT22;8051;50.820;4.884;2024-01-07T02:08:54;2.20;99.90
15906;DHT22;8051;50.820;4.884;2024-01-07T02:11:22;2.20;99.90
15906;DHT22;8051;50.820;4.884;2024-01-07T02:13:50;2.20;99.90
15906;DHT22;8051;50.820;4.884;2024-01-07T02:16:17;2.20;99.90
15906;DHT22;8051;50.820;4.884;2024-01-07T02:18:45;2.30;99.90
15906;DHT22;8051;50.820;4.884;2024-01-07T02:21:13;2.30;99.90
15906;DHT22;8051;50.820;4.884;2024-01-07T02:23:42;2.20;99.90
15906;DHT22;8051;50.820;4.884;2024-01-07T02:26:11;2.30;99.90
15906;DHT22;8051;50.820;4.884;2024-01-07T02:28:39;2.30;99.90
15906;DHT22;8051;50.820;4.884;2024-01-07T02:31:06;2.30;99.90
15906;DHT22;8051;50.820;4.884;2024-01-07T02:33:33;2.30;99.90
15906;DHT22;8051;50.820;4.884;2024-01-07T02:36:01;2.20;99.90
15906;DHT22;8051;50.820;4.884;2024-01-07T02:38:28;2.20;99.90
15906;DHT22;8051;50.820;4.884;2024-01-07T02:40:56;2.20;99.90
15906;DHT22;8051;50.820;4.884;2024-01-07T02:43:24;2.10;99.90
15906;DHT22;8051;50.820;4.884;2024-01-07T02:45:52;2.10;99.90
15906;DHT22;8051;50.820;4.884;2024-01-07T02:48:19;2.10;99.90
15906;DHT22;8051;50.820;4.884;2024-01-07T02:50:47;2.10;99.90
15906;DHT22;8051;50.820;4.884;2024-01-07T02:53:14;2.20;99.90
15906;DHT22;8051;50.820;4.884;2024-01-07T02:55:42;2.10;99.90
15906;DHT22;8051;50.820;4.884;2024-01-07T02:58:09;2.10;99.90
15906;DHT22;8051;50.820;4.884;2024-01-07T03:00:38;2.10;99.90
15906;DHT22;8051;50.820;4.884;2024-01-07T03:03:05;2.10;99.90
15906;DHT22;8051;50.820;4.884;2024-01-07T03:05:33;2.10;99.90
15906;DHT22;8051;50.820;4.884;2024-01-07T03:08:00;2.10;99.90
15906;DHT22;8051;50.820;4.884;2024-01-07T03:10:28;2.10;99.90
15906;DHT22;8051;50.820;4.884;2024-01-07T03:12:55;2.20;99.90
15906;DHT22;8051;50.820;4.884;2024-01-07T03:15:23;2.10;99.90
15906;DHT22;8051;50.820;4.884;2024-01-07T03:17:52;2.10;99.90
15906;DHT22;8051;50.820;4.884;2024-01-07T03:20:19;2.10;99.90
15906;DHT22;8051;50.820;4.884;2024-01-07T03:22:46;2.10;99.90
15906;DHT22;8051;50.820;4.884;2024-01-07T03:25:14;2.10;99.90
15906;DHT22;8051;50.820;4.884;2024-01-07T03:27:42;2.10;99.90
15906;DHT22;8051;50.820;4.884;2024-01-07T03:30:10;2.10;99.90
15906;DHT22;8051;50.820;4.884;2024-01-07T03:32:38;2.10;99.90
15906;DHT22;8051;50.820;4.884;2024-01-07T03:35:07;2.10;99.90
15906;DHT22;8051;50.820;4.884;2024-01-07T03:37:35;2.10;99.90
15906;DHT22;8051;50.820;4.884;2024-01-07T03:40:07;2.10;99.90
15906;DHT22;8051;50.820;4.884;2024-01-07T03:42:36;2.00;99.90
15906;DHT22;8051;50.820;4.884;2024-01-07T03:45:04;2.00;99.90
15906;DHT22;8051;50.820;4.884;2024-01-07T03:47:31;2.00;99.90
15906;DHT22;8051;50.820;4.884;2024-01-07T03:49:59;1.90;99.90
15906;DHT22;8051;50.820;4.884;2024-01-07T03:52:28;1.90;99.90
15906;DHT22;8051;50.820;4.884;2024-01-07T03:54:55;1.90;99.90
15906;DHT22;8051;50.820;4.884;2024-01-07T03:57:23;1.90;99.90
15906;DHT22;8051;50.820;4.884;2024-01-07T03:59:50;1.90;99.90
15906;DHT22;8051;50.820;4.884;2024-01-07T04:02:17;1.90;99.90
15906;DHT22;8051;50.820;4.884;2024-01-07T04:04:45;1.90;99.90
15906;DHT22;8051;50.820;4.884;2024-01-07T04:07:12;1.90;99.90
15906;DHT22;8051;50.820;4.884;2024-01-07T04:09:43;1.80;99.90
15906;DHT22;8051;50.820;4.884;2024-01-07T04:12:10;1.90;99.90
15906;DHT22;8051;50.820;4.884;2024-01-07T04:14:38;1.90;99.90
15906;DHT22;8051;50.820;4.884;2024-01-07T04:17:05;1.90;99.90
15906;DHT22;8051;50.820;4.884;2024-01-07T04:19:36;1.90;99.90
15906;DHT22;8051;50.820;4.884;2024-01-07T04:22:04;1.80;99.90
15906;DHT22;8051;50.820;4.884;2024-01-07T04:24:31;1.80;99.90
15906;DHT22;8051;50.820;4.884;2024-01-07T04:27:00;1.80;99.90
15906;DHT22;8051;50.820;4.884;2024-01-07T04:29:27;1.80;99.90
15906;DHT22;8051;50.820;4.884;2024-01-07T04:31:55;1.80;99.90
15906;DHT22;8051;50.820;4.884;2024-01-07T04:34:22;1.80;99.90
15906;DHT22;8051;50.820;4.884;2024-01-07T04:36:50;1.80;99.90
15906;DHT22;8051;50.820;4.884;2024-01-07T04:39:18;1.80;99.90
15906;DHT22;8051;50.820;4.884;2024-01-07T04:41:45;1.80;99.90
15906;DHT22;8051;50.820;4.884;2024-01-07T04:44:14;1.80;99.90
15906;DHT22;8051;50.820;4.884;2024-01-07T04:46:41;1.80;99.90
15906;DHT22;8051;50.820;4.884;2024-01-07T04:49:09;1.80;99.90
15906;DHT22;8051;50.820;4.884;2024-01-07T04:51:36;1.70;99.90
15906;DHT22;8051;50.820;4.884;2024-01-07T04:54:04;1.70;99.90
15906;DHT22;8051;50.820;4.884;2024-01-07T04:56:31;1.70;99.90
15906;DHT22;8051;50.820;4.884;2024-01-07T04:58:59;1.80;99.90
15906;DHT22;8051;50.820;4.884;2024-01-07T05:01:28;1.70;99.90
15906;DHT22;8051;50.820;4.884;2024-01-07T05:03:55;1.70;99.90
15906;DHT22;8051;50.820;4.884;2024-01-07T05:06:23;1.70;99.90
15906;DHT22;8051;50.820;4.884;2024-01-07T05:08:50;1.70;99.90
15906;DHT22;8051;50.820;4.884;2024-01-07T05:11:18;1.70;99.90
15906;DHT22;8051;50.820;4.884;2024-01-07T05:13:45;1.70;99.90
15906;DHT22;8051;50.820;4.884;2024-01-07T05:16:18;1.70;99.90
15906;DHT22;8051;50.820;4.884;2024-01-07T05:18:47;1.70;99.90
15906;DHT22;8051;50.820;4.884;2024-01-07T05:21:15;1.70;99.90
15906;DHT22;8051;50.820;4.884;2024-01-07T05:23:45;1.70;99.90
15906;DHT22;8051;50.820;4.884;2024-01-07T05:26:12;1.70;99.90
15906;DHT22;8051;50.820;4.884;2024-01-07T05:28:40;1.70;99.90
15906;DHT22;8051;50.820;4.884;2024-01-07T05:31:14;1.70;99.90
15906;DHT22;8051;50.820;4.884;2024-01-07T05:33:42;1.70;99.90
15906;DHT22;8051;50.820;4.884;2024-01-07T05:36:11;1.80;99.90
15906;DHT22;8051;50.820;4.884;2024-01-07T05:38:38;1.70;99.90
15906;DHT22;8051;50.820;4.884;2024-01-07T05:41:06;1.70;99.90
15906;DHT22;8051;50.820;4.884;2024-01-07T05:43:35;1.70;99.90
15906;DHT22;8051;50.820;4.884;2024-01-07T05:46:03;1.70;99.90
15906;DHT22;8051;50.820;4.884;2024-01-07T05:48:41;1.60;99.90
15906;DHT22;8051;50.820;4.884;2024-01-07T05:51:12;1.60;99.90
15906;DHT22;8051;50.820;4.884;2024-01-07T05:53:40;1.40;99.90
15906;DHT22;8051;50.820;4.884;2024-01-07T05:56:07;1.40;99.90
15906;DHT22;8051;50.820;4.884;2024-01-07T05:58:35;1.30;99.90
15906;DHT22;8051;50.820;4.884;2024-01-07T06:01:02;1.30;99.90
15906;DHT22;8051;50.820;4.884;2024-01-07T06:03:30;1.30;99.90
15906;DHT22;8051;50.820;4.884;2024-01-07T06:05:58;1.30;99.90
15906;DHT22;8051;50.820;4.884;2024-01-07T06:08:27;1.30;99.90
15906;DHT22;8051;50.820;4.884;2024-01-07T06:10:54;1.20;99.90
15906;DHT22;8051;50.820;4.884;2024-01-07T06:13:21;1.10;99.90
15906;DHT22;8051;50.820;4.884;2024-01-07T06:15:49;1.10;99.90
15906;DHT22;8051;50.820;4.884;2024-01-07T06:18:16;1.10;99.90
15906;DHT22;8051;50.820;4.884;2024-01-07T06:20:44;1.20;99.90
15906;DHT22;8051;50.820;4.884;2024-01-07T06:23:11;1.20;99.90
15906;DHT22;8051;50.820;4.884;2024-01-07T06:25:40;1.20;99.90
15906;DHT22;8051;50.820;4.884;2024-01-07T06:28:08;1.20;99.90
15906;DHT22;8051;50.820;4.884;2024-01-07T06:30:36;1.20;99.90
15906;DHT22;8051;50.820;4.884;2024-01-07T06:33:04;1.20;99.90
15906;DHT22;8051;50.820;4.884;2024-01-07T06:35:32;1.20;99.90
15906;DHT22;8051;50.820;4.884;2024-01-07T06:37:59;1.30;99.90
15906;DHT22;8051;50.820;4.884;2024-01-07T06:40:27;1.30;99.90
15906;DHT22;8051;50.820;4.884;2024-01-07T06:42:55;1.40;99.90
15906;DHT22;8051;50.820;4.884;2024-01-07T06:45:23;1.40;99.90
15906;DHT22;8051;50.820;4.884;2024-01-07T06:47:50;1.40;99.90
15906;DHT22;8051;50.820;4.884;2024-01-07T06:50:19;1.40;99.90
15906;DHT22;8051;50.820;4.884;2024-01-07T06:52:47;1.40;99.90
15906;DHT22;8051;50.820;4.884;2024-01-07T06:55:15;1.40;99.90
15906;DHT22;8051;50.820;4.884;2024-01-07T06:57:42;1.40;99.90
15906;DHT22;8051;50.820;4.884;2024-01-07T07:00:12;1.40;99.90
15906;DHT22;8051;50.820;4.884;2024-01-07T07:02:41;1.40;99.90
15906;DHT22;8051;50.820;4.884;2024-01-07T07:05:08;1.40;99.90
15906;DHT22;8051;50.820;4.884;2024-01-07T07:07:36;1.40;99.90
15906;DHT22;8051;50.820;4.884;2024-01-07T07:10:03;1.40;99.90
15906;DHT22;8051;50.820;4.884;2024-01-07T07:12:31;1.50;99.90
15906;DHT22;8051;50.820;4.884;2024-01-07T07:14:59;1.50;99.90
15906;DHT22;8051;50.820;4.884;2024-01-07T07:17:27;1.50;99.90
15906;DHT22;8051;50.820;4.884;2024-01-07T07:19:54;1.40;99.90
15906;DHT22;8051;50.820;4.884;2024-01-07T07:22:21;1.40;99.90
15906;DHT22;8051;50.820;4.884;2024-01-07T07:24:49;1.40;99.90
15906;DHT22;8051;50.820;4.884;2024-01-07T07:27:16;1.40;99.90
15906;DHT22;8051;50.820;4.884;2024-01-07T07:29:44;1.40;99.90
15906;DHT22;8051;50.820;4.884;2024-01-07T07:32:11;1.40;99.90
15906;DHT22;8051;50.820;4.884;2024-01-07T07:34:40;1.40;99.90
15906;DHT22;8051;50.820;4.884;2024-01-07T07:37:08;1.40;99.90
15906;DHT22;8051;50.820;4.884;2024-01-07T07:39:35;1.40;99.90
15906;DHT22;8051;50.820;4.884;2024-01-07T07:42:03;1.40;99.90
15906;DHT22;8051;50.820;4.884;2024-01-07T07:44:31;1.50;99.90
15906;DHT22;8051;50.820;4.884;2024-01-07T07:46:58;1.50;99.90
15906;DHT22;8051;50.820;4.884;2024-01-07T07:49:26;1.40;99.90
15906;DHT22;8051;50.820;4.884;2024-01-07T07:51:56;1.40;99.90
15906;DHT22;8051;50.820;4.884;2024-01-07T07:54:23;1.40;99.90
15906;DHT22;8051;50.820;4.884;2024-01-07T07:56:52;1.50;99.90
15906;DHT22;8051;50.820;4.884;2024-01-07T07:59:19;1.50;99.90
15906;DHT22;8051;50.820;4.884;2024-01-07T08:01:46;1.50;99.90
15906;DHT22;8051;50.820;4.884;2024-01-07T08:04:15;1.50;99.90
15906;DHT22;8051;50.820;4.884;2024-01-07T08:06:42;1.40;99.90
15906;DHT22;8051;50.820;4.884;2024-01-07T08:09:12;1.40;99.90
15906;DHT22;8051;50.820;4.884;2024-01-07T08:11:39;1.40;99.90
15906;DHT22;8051;50.820;4.884;2024-01-07T08:14:07;1.40;99.90
15906;DHT22;8051;50.820;4.884;2024-01-07T08:16:35;1.40;99.90
15906;DHT22;8051;50.820;4.884;2024-01-07T08:19:02;1.30;99.90
15906;DHT22;8051;50.820;4.884;2024-01-07T08:21:29;1.30;99.90
15906;DHT22;8051;50.820;4.884;2024-01-07T08:23:57;1.30;99.90
15906;DHT22;8051;50.820;4.884;2024-01-07T08:26:26;1.30;99.90
15906;DHT22;8051;50.820;4.884;2024-01-07T08:28:53;1.30;99.90
15906;DHT22;8051;50.820;4.884;2024-01-07T08:31:21;1.30;99.90
15906;DHT22;8051;50.820;4.884;2024-01-07T08:33:48;1.30;99.90
15906;DHT22;8051;50.820;4.884;2024-01-07T08:36:16;1.20;99.90
15906;DHT22;8051;50.820;4.884;2024-01-07T08:38:44;1.20;99.90
15906;DHT22;8051;50.820;4.884;2024-01-07T08:41:12;1.20;99.90
15906;DHT22;8051;50.820;4.884;2024-01-07T08:43:43;1.20;99.90
15906;DHT22;8051;50.820;4.884;2024-01-07T08:46:11;1.20;99.90
15906;DHT22;8051;50.820;4.884;2024-01-07T08:48:39;1.20;99.90
15906;DHT22;8051;50.820;4.884;2024-01-07T08:51:07;1.20;99.90
15906;DHT22;8051;50.820;4.884;2024-01-07T08:53:34;1.20;99.90
15906;DHT22;8051;50.820;4.884;2024-01-07T08:56:02;1.20;99.90
15906;DHT22;8051;50.820;4.884;2024-01-07T08:58:29;1.20;99.90
15906;DHT22;8051;50.820;4.884;2024-01-07T09:00:58;1.30;99.90
15906;DHT22;8051;50.820;4.884;2024-01-07T09:03:26;1.30;99.90
15906;DHT22;8051;50.820;4.884;2024-01-07T09:05:53;1.20;99.90
15906;DHT22;8051;50.820;4.884;2024-01-07T09:08:20;1.20;99.90
15906;DHT22;8051;50.820;4.884;2024-01-07T09:10:48;1.20;99.90
15906;DHT22;8051;50.820;4.884;2024-01-07T09:13:16;1.20;99.90
15906;DHT22;8051;50.820;4.884;2024-01-07T09:15:43;1.20;99.90
15906;DHT22;8051;50.820;4.884;2024-01-07T09:18:12;1.30;99.90
15906;DHT22;8051;50.820;4.884;2024-01-07T09:20:40;1.30;99.90
15906;DHT22;8051;50.820;4.884;2024-01-07T09:23:07;1.30;99.90
15906;DHT22;8051;50.820;4.884;2024-01-07T09:25:35;1.30;99.90
15906;DHT22;8051;50.820;4.884;2024-01-07T09:28:03;1.30;99.90
15906;DHT22;8051;50.820;4.884;2024-01-07T09:30:31;1.30;99.90
15906;DHT22;8051;50.820;4.884;2024-01-07T09:32:59;1.30;99.90
15906;DHT22;8051;50.820;4.884;2024-01-07T09:35:28;1.30;99.90
15906;DHT22;8051;50.820;4.884;2024-01-07T09:37:55;1.30;99.90
15906;DHT22;8051;50.820;4.884;2024-01-07T09:40:23;1.30;99.90
15906;DHT22;8051;50.820;4.884;2024-01-07T09:42:50;1.30;99.90
15906;DHT22;8051;50.820;4.884;2024-01-07T09:45:18;1.20;99.90
15906;DHT22;8051;50.820;4.884;2024-01-07T09:47:48;1.20;99.90
15906;DHT22;8051;50.820;4.884;2024-01-07T09:50:16;1.20;99.90
15906;DHT22;8051;50.820;4.884;2024-01-07T09:52:45;1.20;99.90
15906;DHT22;8051;50.820;4.884;2024-01-07T09:55:19;1.10;99.90
15906;DHT22;8051;50.820;4.884;2024-01-07T09:57:49;1.10;99.90
15906;DHT22;8051;50.820;4.884;2024-01-07T10:00:16;1.00;99.90
15906;DHT22;8051;50.820;4.884;2024-01-07T10:02:44;1.00;99.90
15906;DHT22;8051;50.820;4.884;2024-01-07T10:05:12;1.00;99.90
15906;DHT22;8051;50.820;4.884;2024-01-07T10:07:39;1.00;99.90
15906;DHT22;8051;50.820;4.884;2024-01-07T10:10:15;1.00;99.90
15906;DHT22;8051;50.820;4.884;2024-01-07T10:12:44;0.90;99.90
15906;DHT22;8051;50.820;4.884;2024-01-07T10:15:12;1.00;99.90
15906;DHT22;8051;50.820;4.884;2024-01-07T10:17:41;1.00;99.90
15906;DHT22;8051;50.820;4.884;2024-01-07T10:20:10;1.00;99.90
15906;DHT22;8051;50.820;4.884;2024-01-07T10:22:38;1.00;99.90
15906;DHT22;8051;50.820;4.884;2024-01-07T10:25:06;0.90;99.90
15906;DHT22;8051;50.820;4.884;2024-01-07T10:27:36;0.90;99.90
15906;DHT22;8051;50.820;4.884;2024-01-07T10:30:04;0.90;99.90
15906;DHT22;8051;50.820;4.884;2024-01-07T10:32:32;0.80;99.90
15906;DHT22;8051;50.820;4.884;2024-01-07T10:35:03;0.80;99.90
15906;DHT22;8051;50.820;4.884;2024-01-07T10:37:31;0.70;99.90
15906;DHT22;8051;50.820;4.884;2024-01-07T10:39:59;0.70;99.90
15906;DHT22;8051;50.820;4.884;2024-01-07T10:42:30;0.70;99.90
15906;DHT22;8051;50.820;4.884;2024-01-07T10:44:59;0.70;99.90
15906;DHT22;8051;50.820;4.884;2024-01-07T10:47:30;0.70;99.90
15906;DHT22;8051;50.820;4.884;2024-01-07T10:49:59;0.70;99.90
15906;DHT22;8051;50.820;4.884;2024-01-07T10:52:27;0.70;99.90
15906;DHT22;8051;50.820;4.884;2024-01-07T10:54:57;0.70;99.90
15906;DHT22;8051;50.820;4.884;2024-01-07T10:57:37;0.70;99.90
15906;DHT22;8051;50.820;4.884;2024-01-07T11:00:10;0.70;99.90
15906;DHT22;8051;50.820;4.884;2024-01-07T11:02:51;0.60;99.90
15906;DHT22;8051;50.820;4.884;2024-01-07T11:05:26;0.60;99.90
15906;DHT22;8051;50.820;4.884;2024-01-07T11:08:06;0.60;99.90
15906;DHT22;8051;50.820;4.884;2024-01-07T11:10:41;0.60;99.90
15906;DHT22;8051;50.820;4.884;2024-01-07T11:13:10;0.60;99.90
15906;DHT22;8051;50.820;4.884;2024-01-07T11:15:52;0.60;99.90
15906;DHT22;8051;50.820;4.884;2024-01-07T11:18:21;0.60;99.90
15906;DHT22;8051;50.820;4.884;2024-01-07T11:20:49;0.60;99.90
15906;DHT22;8051;50.820;4.884;2024-01-07T11:23:31;0.70;99.90
15906;DHT22;8051;50.820;4.884;2024-01-07T11:26:00;0.70;99.90
15906;DHT22;8051;50.820;4.884;2024-01-07T11:28:47;0.70;99.90
15906;DHT22;8051;50.820;4.884;2024-01-07T11:31:17;0.60;99.90
15906;DHT22;8051;50.820;4.884;2024-01-07T11:33:46;0.60;99.90
15906;DHT22;8051;50.820;4.884;2024-01-07T11:36:14;0.70;99.90
15906;DHT22;8051;50.820;4.884;2024-01-07T11:38:42;0.70;99.90
15906;DHT22;8051;50.820;4.884;2024-01-07T11:41:11;0.70;99.90
15906;DHT22;8051;50.820;4.884;2024-01-07T11:43:52;0.70;99.90
15906;DHT22;8051;50.820;4.884;2024-01-07T11:46:22;0.70;99.90
15906;DHT22;8051;50.820;4.884;2024-01-07T11:48:52;0.70;99.90
15906;DHT22;8051;50.820;4.884;2024-01-07T11:51:24;0.70;99.90
15906;DHT22;8051;50.820;4.884;2024-01-07T11:53:52;0.70;99.90
15906;DHT22;8051;50.820;4.884;2024-01-07T11:56:20;0.70;99.90
15906;DHT22;8051;50.820;4.884;2024-01-07T11:58:47;0.70;99.90
15906;DHT22;8051;50.820;4.884;2024-01-07T12:01:15;0.80;99.90
15906;DHT22;8051;50.820;4.884;2024-01-07T12:03:45;0.80;99.90
15906;DHT22;8051;50.820;4.884;2024-01-07T12:06:12;0.80;99.90
15906;DHT22;8051;50.820;4.884;2024-01-07T12:08:40;0.70;99.90
15906;DHT22;8051;50.820;4.884;2024-01-07T12:11:09;0.80;99.90
15906;DHT22;8051;50.820;4.884;2024-01-07T12:13:38;0.70;99.90
15906;DHT22;8051;50.820;4.884;2024-01-07T12:16:06;0.70;99.90
15906;DHT22;8051;50.820;4.884;2024-01-07T12:18:36;0.60;99.90
15906;DHT22;8051;50.820;4.884;2024-01-07T12:21:05;0.60;99.90
15906;DHT22;8051;50.820;4.884;2024-01-07T12:23:35;0.60;99.90
15906;DHT22;8051;50.820;4.884;2024-01-07T12:26:08;0.60;99.90
15906;DHT22;8051;50.820;4.884;2024-01-07T12:28:36;0.60;99.90
15906;DHT22;8051;50.820;4.884;2024-01-07T12:31:04;0.70;99.90
15906;DHT22;8051;50.820;4.884;2024-01-07T12:33:32;0.70;99.90
15906;DHT22;8051;50.820;4.884;2024-01-07T12:36:00;0.70;99.90
15906;DHT22;8051;50.820;4.884;2024-01-07T12:38:29;0.70;99.90
15906;DHT22;8051;50.820;4.884;2024-01-07T12:40:56;0.60;99.90
15906;DHT22;8051;50.820;4.884;2024-01-07T12:43:24;0.60;99.90
15906;DHT22;8051;50.820;4.884;2024-01-07T12:45:51;0.60;99.90
15906;DHT22;8051;50.820;4.884;2024-01-07T12:48:20;0.60;99.90
15906;DHT22;8051;50.820;4.884;2024-01-07T12:50:48;0.60;99.90
15906;DHT22;8051;50.820;4.884;2024-01-07T12:53:15;0.60;99.90
15906;DHT22;8051;50.820;4.884;2024-01-07T12:55:44;0.60;99.90
15906;DHT22;8051;50.820;4.884;2024-01-07T12:58:12;0.70;99.90
15906;DHT22;8051;50.820;4.884;2024-01-07T13:00:39;0.70;99.90
15906;DHT22;8051;50.820;4.884;2024-01-07T13:03:07;0.70;99.90
15906;DHT22;8051;50.820;4.884;2024-01-07T13:05:39;0.70;99.90
15906;DHT22;8051;50.820;4.884;2024-01-07T13:08:07;0.70;99.90
15906;DHT22;8051;50.820;4.884;2024-01-07T13:10:35;0.80;99.90
15906;DHT22;8051;50.820;4.884;2024-01-07T13:13:04;0.80;99.90
15906;DHT22;8051;50.820;4.884;2024-01-07T13:15:31;0.90;99.90
15906;DHT22;8051;50.820;4.884;2024-01-07T13:17:59;0.90;99.90
15906;DHT22;8051;50.820;4.884;2024-01-07T13:20:26;0.90;99.90
15906;DHT22;8051;50.820;4.884;2024-01-07T13:22:54;0.80;99.90
15906;DHT22;8051;50.820;4.884;2024-01-07T13:25:21;0.90;99.90
15906;DHT22;8051;50.820;4.884;2024-01-07T13:27:49;0.80;99.90
15906;DHT22;8051;50.820;4.884;2024-01-07T13:30:18;0.80;99.90
15906;DHT22;8051;50.820;4.884;2024-01-07T13:32:45;0.80;99.90
15906;DHT22;8051;50.820;4.884;2024-01-07T13:35:15;0.80;99.90
15906;DHT22;8051;50.820;4.884;2024-01-07T13:37:42;0.70;99.90
15906;DHT22;8051;50.820;4.884;2024-01-07T13:40:11;0.70;99.90
15906;DHT22;8051;50.820;4.884;2024-01-07T13:42:40;0.70;99.90
15906;DHT22;8051;50.820;4.884;2024-01-07T13:45:08;0.70;99.90
15906;DHT22;8051;50.820;4.884;2024-01-07T13:47:37;0.70;99.90
15906;DHT22;8051;50.820;4.884;2024-01-07T13:50:06;0.80;99.90
15906;DHT22;8051;50.820;4.884;2024-01-07T13:52:35;0.80;99.90
15906;DHT22;8051;50.820;4.884;2024-01-07T13:55:03;0.80;99.90
15906;DHT22;8051;50.820;4.884;2024-01-07T13:57:30;0.80;99.90
15906;DHT22;8051;50.820;4.884;2024-01-07T13:59:58;0.80;99.90
15906;DHT22;8051;50.820;4.884;2024-01-07T14:02:24;0.80;99.90
15906;DHT22;8051;50.820;4.884;2024-01-07T14:04:53;0.80;99.90
15906;DHT22;8051;50.820;4.884;2024-01-07T14:07:21;0.70;99.90
15906;DHT22;8051;50.820;4.884;2024-01-07T14:09:50;0.80;99.90
15906;DHT22;8051;50.820;4.884;2024-01-07T14:12:18;0.80;99.90
15906;DHT22;8051;50.820;4.884;2024-01-07T14:14:45;0.80;99.90
15906;DHT22;8051;50.820;4.884;2024-01-07T14:17:12;0.80;99.90
15906;DHT22;8051;50.820;4.884;2024-01-07T14:19:40;0.70;99.90
15906;DHT22;8051;50.820;4.884;2024-01-07T14:22:09;0.70;99.90
15906;DHT22;8051;50.820;4.884;2024-01-07T14:24:36;0.70;99.90
15906;DHT22;8051;50.820;4.884;2024-01-07T14:27:04;0.70;99.90
15906;DHT22;8051;50.820;4.884;2024-01-07T14:29:31;0.60;99.90
15906;DHT22;8051;50.820;4.884;2024-01-07T14:31:59;0.60;99.90
15906;DHT22;8051;50.820;4.884;2024-01-07T14:34:28;0.60;99.90
15906;DHT22;8051;50.820;4.884;2024-01-07T14:36:56;0.60;99.90
15906;DHT22;8051;50.820;4.884;2024-01-07T14:39:25;0.60;99.90
15906;DHT22;8051;50.820;4.884;2024-01-07T14:41:52;0.60;99.90
15906;DHT22;8051;50.820;4.884;2024-01-07T14:44:20;0.60;99.90
15906;DHT22;8051;50.820;4.884;2024-01-07T14:46:48;0.60;99.90
15906;DHT22;8051;50.820;4.884;2024-01-07T14:49:16;0.60;99.90
15906;DHT22;8051;50.820;4.884;2024-01-07T14:51:43;0.60;99.90
15906;DHT22;8051;50.820;4.884;2024-01-07T14:54:11;0.60;99.90
15906;DHT22;8051;50.820;4.884;2024-01-07T14:56:40;0.60;99.90
15906;DHT22;8051;50.820;4.884;2024-01-07T14:59:08;0.60;99.90
15906;DHT22;8051;50.820;4.884;2024-01-07T15:01:36;0.60;99.90
15906;DHT22;8051;50.820;4.884;2024-01-07T15:04:05;0.70;99.90
15906;DHT22;8051;50.820;4.884;2024-01-07T15:06:39;0.60;99.90
15906;DHT22;8051;50.820;4.884;2024-01-07T15:09:08;0.70;99.90
15906;DHT22;8051;50.820;4.884;2024-01-07T15:11:35;0.70;99.90
15906;DHT22;8051;50.820;4.884;2024-01-07T15:14:05;0.60;99.90
15906;DHT22;8051;50.820;4.884;2024-01-07T15:16:34;0.60;99.90
15906;DHT22;8051;50.820;4.884;2024-01-07T15:19:03;0.60;99.90
15906;DHT22;8051;50.820;4.884;2024-01-07T15:21:30;0.50;99.90
15906;DHT22;8051;50.820;4.884;2024-01-07T15:23:58;0.40;99.90
15906;DHT22;8051;50.820;4.884;2024-01-07T15:26:25;0.40;99.90
15906;DHT22;8051;50.820;4.884;2024-01-07T15:28:53;0.40;99.90
15906;DHT22;8051;50.820;4.884;2024-01-07T15:31:22;0.30;99.90
15906;DHT22;8051;50.820;4.884;2024-01-07T15:33:50;0.30;99.90
15906;DHT22;8051;50.820;4.884;2024-01-07T15:36:17;0.30;99.90
15906;DHT22;8051;50.820;4.884;2024-01-07T15:38:44;0.30;99.90
15906;DHT22;8051;50.820;4.884;2024-01-07T15:41:12;0.30;99.90
15906;DHT22;8051;50.820;4.884;2024-01-07T15:43:39;0.20;99.90
15906;DHT22;8051;50.820;4.884;2024-01-07T15:46:07;0.20;99.90
15906;DHT22;8051;50.820;4.884;2024-01-07T15:48:36;0.10;99.90
15906;DHT22;8051;50.820;4.884;2024-01-07T15:51:04;0.00;99.90
15906;DHT22;8051;50.820;4.884;2024-01-07T15:53:32;0.00;99.90
15906;DHT22;8051;50.820;4.884;2024-01-07T15:56:01;-0.10;99.90
15906;DHT22;8051;50.820;4.884;2024-01-07T15:58:29;-0.10;99.90
15906;DHT22;8051;50.820;4.884;2024-01-07T16:00:59;-0.10;99.90
15906;DHT22;8051;50.820;4.884;2024-01-07T16:03:29;-0.10;99.90
15906;DHT22;8051;50.820;4.884;2024-01-07T16:05:58;-0.10;99.90
15906;DHT22;8051;50.820;4.884;2024-01-07T16:08:26;-0.10;99.90